sensor_id;sensor_type;location;lat;lon;timestamp;temperature;humidity
60033;DHT22;45905;50.570;10.428;2023-02-04T00:00:17;5.20;98.60
60033;DHT22;45905;50.570;10.428;2023-02-04T00:02:45;5.20;98.50
60033;DHT22;45905;50.570;10.428;2023-02-04T00:05:13;5.20;98.60
60033;DHT22;45905;50.570;10.428;2023-02-04T00:07:42;5.20;98.60
60033;DHT22;45905;50.570;10.428;2023-02-04T00:10:10;5.20;98.60
60033;DHT22;45905;50.570;10.428;2023-02-04T00:12:37;5.20;98.60
60033;DHT22;45905;50.570;10.428;2023-02-04T00:15:05;5.20;98.70
60033;DHT22;45905;50.570;10.428;2023-02-04T00:17:32;5.20;99.00
60033;DHT22;45905;50.570;10.428;2023-02-04T00:19:59;5.20;99.00
60033;DHT22;45905;50.570;10.428;2023-02-04T00:22:26;5.20;99.00
60033;DHT22;45905;50.570;10.428;2023-02-04T00:24:55;5.20;99.30
60033;DHT22;45905;50.570;10.428;2023-02-04T00:27:22;5.20;99.40
60033;DHT22;45905;50.570;10.428;2023-02-04T00:29:49;5.20;99.50
60033;DHT22;45905;50.570;10.428;2023-02-04T00:32:16;5.20;99.30
60033;DHT22;45905;50.570;10.428;2023-02-04T00:34:44;5.20;99.80
60033;DHT22;45905;50.570;10.428;2023-02-04T00:37:11;5.20;99.90
60033;DHT22;45905;50.570;10.428;2023-02-04T00:39:38;5.10;99.90
60033;DHT22;45905;50.570;10.428;2023-02-04T00:42:05;5.20;99.90
60033;DHT22;45905;50.570;10.428;2023-02-04T00:44:35;5.10;99.90
60033;DHT22;45905;50.570;10.428;2023-02-04T00:47:03;5.10;99.90
60033;DHT22;45905;50.570;10.428;2023-02-04T00:49:34;5.10;99.90
60033;DHT22;45905;50.570;10.428;2023-02-04T00:52:02;5.00;99.90
60033;DHT22;45905;50.570;10.428;2023-02-04T00:54:29;5.00;99.90
60033;DHT22;45905;50.570;10.428;2023-02-04T00:56:56;5.00;99.90
60033;DHT22;45905;50.570;10.428;2023-02-04T00:59:23;5.00;99.90
60033;DHT22;45905;50.570;10.428;2023-02-04T01:01:50;5.00;99.90
60033;DHT22;45905;50.570;10.428;2023-02-04T01:04:18;5.00;99.90
60033;DHT22;45905;50.570;10.428;2023-02-04T01:06:45;4.90;99.90
60033;DHT22;45905;50.570;10.428;2023-02-04T01:09:12;5.00;99.90
60033;DHT22;45905;50.570;10.428;2023-02-04T01:11:41;5.00;99.90
60033;DHT22;45905;50.570;10.428;2023-02-04T01:14:08;4.90;99.90
60033;DHT22;45905;50.570;10.428;2023-02-04T01:16:38;4.90;99.90
60033;DHT22;45905;50.570;10.428;2023-02-04T01:19:05;4.80;99.90
60033;DHT22;45905;50.570;10.428;2023-02-04T01:21:32;4.90;99.90
60033;DHT22;45905;50.570;10.428;2023-02-04T01:24:01;4.80;99.90
60033;DHT22;45905;50.570;10.428;2023-02-04T01:26:28;4.70;99.90
60033;DHT22;45905;50.570;10.428;2023-02-04T01:28:55;4.70;99.90
60033;DHT22;45905;50.570;10.428;2023-02-04T01:31:23;4.70;99.90
60033;DHT22;45905;50.570;10.428;2023-02-04T01:33:51;4.60;99.90
60033;DHT22;45905;50.570;10.428;2023-02-04T01:36:18;4.60;99.90
60033;DHT22;45905;50.570;10.428;2023-02-04T01:38:48;4.50;99.90
60033;DHT22;45905;50.570;10.428;2023-02-04T01:41:16;4.50;99.90
60033;DHT22;45905;50.570;10.428;2023-02-04T01:43:47;4.50;99.90
60033;DHT22;45905;50.570;10.428;2023-02-04T01:46:15;4.50;99.90
60033;DHT22;45905;50.570;10.428;2023-02-04T01:48:43;4.50;99.90
60033;DHT22;45905;50.570;10.428;2023-02-04T01:51:14;4.50;99.90
60033;DHT22;45905;50.570;10.428;2023-02-04T01:53:45;4.40;99.90
60033;DHT22;45905;50.570;10.428;2023-02-04T01:56:18;4.50;99.90
60033;DHT22;45905;50.570;10.428;2023-02-04T01:58:48;4.50;99.90
60033;DHT22;45905;50.570;10.428;2023-02-04T02:04:15;4.50;99.90
60033;DHT22;45905;50.570;10.428;2023-02-04T02:06:48;4.40;99.90
60033;DHT22;45905;50.570;10.428;2023-02-04T02:09:19;4.30;99.90
60033;DHT22;45905;50.570;10.428;2023-02-04T02:11:47;4.30;99.90
60033;DHT22;45905;50.570;10.428;2023-02-04T02:14:14;4.30;99.90
60033;DHT22;45905;50.570;10.428;2023-02-04T02:16:42;4.30;99.90
60033;DHT22;45905;50.570;10.428;2023-02-04T02:19:14;4.30;99.90
60033;DHT22;45905;50.570;10.428;2023-02-04T02:22:10;4.30;99.90
60033;DHT22;45905;50.570;10.428;2023-02-04T02:24:42;4.30;99.90
60033;DHT22;45905;50.570;10.428;2023-02-04T02:27:10;4.30;99.90
60033;DHT22;45905;50.570;10.428;2023-02-04T02:29:40;4.30;99.90
60033;DHT22;45905;50.570;10.428;2023-02-04T02:32:10;4.20;99.90
60033;DHT22;45905;50.570;10.428;2023-02-04T02:34:40;4.20;99.90
60033;DHT22;45905;50.570;10.428;2023-02-04T02:37:09;4.20;99.90
60033;DHT22;45905;50.570;10.428;2023-02-04T02:39:38;4.10;99.90
60033;DHT22;45905;50.570;10.428;2023-02-04T02:42:08;4.20;99.90
60033;DHT22;45905;50.570;10.428;2023-02-04T02:44:36;4.10;99.90
60033;DHT22;45905;50.570;10.428;2023-02-04T02:47:03;4.10;99.90
60033;DHT22;45905;50.570;10.428;2023-02-04T02:49:31;4.10;99.90
60033;DHT22;45905;50.570;10.428;2023-02-04T02:52:00;4.10;99.90
60033;DHT22;45905;50.570;10.428;2023-02-04T02:54:29;4.00;99.90
60033;DHT22;45905;50.570;10.428;2023-02-04T02:57:01;4.10;99.90
60033;DHT22;45905;50.570;10.428;2023-02-04T02:59:28;4.00;99.90
60033;DHT22;45905;50.570;10.428;2023-02-04T03:01:59;4.00;99.90
60033;DHT22;45905;50.570;10.428;2023-02-04T03:04:32;4.00;99.90
60033;DHT22;45905;50.570;10.428;2023-02-04T03:07:04;4.00;99.90
60033;DHT22;45905;50.570;10.428;2023-02-04T03:09:33;4.00;99.90
60033;DHT22;45905;50.570;10.428;2023-02-04T03:12:03;4.00;99.90
60033;DHT22;45905;50.570;10.428;2023-02-04T03:14:34;4.00;99.90
60033;DHT22;45905;50.570;10.428;2023-02-04T03:17:06;4.00;99.90
60033;DHT22;45905;50.570;10.428;2023-02-04T03:19:36;4.00;99.90
60033;DHT22;45905;50.570;10.428;2023-02-04T03:22:04;4.00;99.90
60033;DHT22;45905;50.570;10.428;2023-02-04T03:24:33;4.00;99.90
60033;DHT22;45905;50.570;10.428;2023-02-04T03:27:02;4.00;99.90
60033;DHT22;45905;50.570;10.428;2023-02-04T03:29:29;4.00;99.90
60033;DHT22;45905;50.570;10.428;2023-02-04T03:31:57;4.00;99.90
60033;DHT22;45905;50.570;10.428;2023-02-04T03:34:26;4.00;99.90
60033;DHT22;45905;50.570;10.428;2023-02-04T03:36:53;4.00;99.90
60033;DHT22;45905;50.570;10.428;2023-02-04T03:39:20;4.00;99.90
60033;DHT22;45905;50.570;10.428;2023-02-04T03:41:47;4.00;99.90
60033;DHT22;45905;50.570;10.428;2023-02-04T03:44:14;4.00;99.90
60033;DHT22;45905;50.570;10.428;2023-02-04T03:46:41;4.00;99.90
60033;DHT22;45905;50.570;10.428;2023-02-04T03:49:08;3.90;99.90
60033;DHT22;45905;50.570;10.428;2023-02-04T03:51:35;4.00;99.90
60033;DHT22;45905;50.570;10.428;2023-02-04T03:54:03;3.90;99.90
60033;DHT22;45905;50.570;10.428;2023-02-04T03:56:30;3.90;99.90
60033;DHT22;45905;50.570;10.428;2023-02-04T03:58:57;3.90;99.90
60033;DHT22;45905;50.570;10.428;2023-02-04T04:01:24;3.90;99.90
60033;DHT22;45905;50.570;10.428;2023-02-04T04:03:51;3.90;99.90
60033;DHT22;45905;50.570;10.428;2023-02-04T04:06:18;3.90;99.90
60033;DHT22;45905;50.570;10.428;2023-02-04T04:08:46;3.80;99.90
60033;DHT22;45905;50.570;10.428;2023-02-04T04:11:13;3.80;99.90
60033;DHT22;45905;50.570;10.428;2023-02-04T04:13:40;3.80;99.90
60033;DHT22;45905;50.570;10.428;2023-02-04T04:16:08;3.80;99.90
60033;DHT22;45905;50.570;10.428;2023-02-04T04:18:35;3.80;99.90
60033;DHT22;45905;50.570;10.428;2023-02-04T04:21:02;3.80;99.90
60033;DHT22;45905;50.570;10.428;2023-02-04T04:23:29;3.80;99.90
60033;DHT22;45905;50.570;10.428;2023-02-04T04:25:56;3.80;99.90
60033;DHT22;45905;50.570;10.428;2023-02-04T04:28:24;3.70;99.90
60033;DHT22;45905;50.570;10.428;2023-02-04T04:30:51;3.70;99.90
60033;DHT22;45905;50.570;10.428;2023-02-04T04:33:18;3.70;99.90
60033;DHT22;45905;50.570;10.428;2023-02-04T04:35:45;3.70;99.90
60033;DHT22;45905;50.570;10.428;2023-02-04T04:38:12;3.60;99.90
60033;DHT22;45905;50.570;10.428;2023-02-04T04:40:39;3.60;99.90
60033;DHT22;45905;50.570;10.428;2023-02-04T04:43:07;3.60;99.90
60033;DHT22;45905;50.570;10.428;2023-02-04T04:45:34;3.70;99.90
60033;DHT22;45905;50.570;10.428;2023-02-04T04:48:01;3.60;99.90
60033;DHT22;45905;50.570;10.428;2023-02-04T04:50:28;3.60;99.90
60033;DHT22;45905;50.570;10.428;2023-02-04T04:52:56;3.60;99.90
60033;DHT22;45905;50.570;10.428;2023-02-04T04:55:23;3.60;99.90
60033;DHT22;45905;50.570;10.428;2023-02-04T04:57:50;3.60;99.90
60033;DHT22;45905;50.570;10.428;2023-02-04T05:00:20;3.60;99.90
60033;DHT22;45905;50.570;10.428;2023-02-04T05:02:47;3.60;99.90
60033;DHT22;45905;50.570;10.428;2023-02-04T05:05:14;3.60;99.90
60033;DHT22;45905;50.570;10.428;2023-02-04T05:07:42;3.50;99.90
60033;DHT22;45905;50.570;10.428;2023-02-04T05:10:09;3.40;99.90
60033;DHT22;45905;50.570;10.428;2023-02-04T05:12:36;3.40;99.90
60033;DHT22;45905;50.570;10.428;2023-02-04T05:15:04;3.50;99.90
60033;DHT22;45905;50.570;10.428;2023-02-04T05:17:32;3.30;99.90
60033;DHT22;45905;50.570;10.428;2023-02-04T05:19:59;3.20;99.90
60033;DHT22;45905;50.570;10.428;2023-02-04T05:22:26;3.20;99.90
60033;DHT22;45905;50.570;10.428;2023-02-04T05:24:53;3.30;99.90
60033;DHT22;45905;50.570;10.428;2023-02-04T05:27:20;3.10;99.90
60033;DHT22;45905;50.570;10.428;2023-02-04T05:29:47;3.10;99.90
60033;DHT22;45905;50.570;10.428;2023-02-04T05:32:14;3.20;99.90
60033;DHT22;45905;50.570;10.428;2023-02-04T05:34:42;3.10;99.90
60033;DHT22;45905;50.570;10.428;2023-02-04T05:37:09;3.10;99.90
60033;DHT22;45905;50.570;10.428;2023-02-04T05:39:36;3.00;99.90
60033;DHT22;45905;50.570;10.428;2023-02-04T05:42:03;3.00;99.90
60033;DHT22;45905;50.570;10.428;2023-02-04T05:44:30;3.00;99.90
60033;DHT22;45905;50.570;10.428;2023-02-04T05:46:57;3.00;99.90
60033;DHT22;45905;50.570;10.428;2023-02-04T05:49:24;3.00;99.90
60033;DHT22;45905;50.570;10.428;2023-02-04T05:51:51;2.80;99.90
60033;DHT22;45905;50.570;10.428;2023-02-04T05:54:18;2.80;99.90
60033;DHT22;45905;50.570;10.428;2023-02-04T05:56:46;2.80;99.90
60033;DHT22;45905;50.570;10.428;2023-02-04T05:59:14;2.70;99.90
60033;DHT22;45905;50.570;10.428;2023-02-04T06:01:41;2.60;99.90
60033;DHT22;45905;50.570;10.428;2023-02-04T06:04:08;2.60;99.90
60033;DHT22;45905;50.570;10.428;2023-02-04T06:06:35;2.50;99.90
60033;DHT22;45905;50.570;10.428;2023-02-04T06:09:03;2.50;99.90
60033;DHT22;45905;50.570;10.428;2023-02-04T06:11:30;2.60;99.90
60033;DHT22;45905;50.570;10.428;2023-02-04T06:13:57;2.50;99.90
60033;DHT22;45905;50.570;10.428;2023-02-04T06:16:24;2.60;99.90
60033;DHT22;45905;50.570;10.428;2023-02-04T06:18:52;2.50;99.90
60033;DHT22;45905;50.570;10.428;2023-02-04T06:21:19;2.80;99.90
60033;DHT22;45905;50.570;10.428;2023-02-04T06:23:46;2.60;99.90
60033;DHT22;45905;50.570;10.428;2023-02-04T06:26:13;2.50;99.90
60033;DHT22;45905;50.570;10.428;2023-02-04T06:28:41;2.60;99.90
60033;DHT22;45905;50.570;10.428;2023-02-04T06:31:08;2.60;99.90
60033;DHT22;45905;50.570;10.428;2023-02-04T06:33:36;2.60;99.90
60033;DHT22;45905;50.570;10.428;2023-02-04T06:36:03;2.70;99.90
60033;DHT22;45905;50.570;10.428;2023-02-04T06:38:31;2.60;99.90
60033;DHT22;45905;50.570;10.428;2023-02-04T06:40:58;2.60;99.90
60033;DHT22;45905;50.570;10.428;2023-02-04T06:43:25;2.50;99.90
60033;DHT22;45905;50.570;10.428;2023-02-04T06:45:53;2.40;99.90
60033;DHT22;45905;50.570;10.428;2023-02-04T06:48:21;2.40;99.90
60033;DHT22;45905;50.570;10.428;2023-02-04T06:50:48;2.40;99.90
60033;DHT22;45905;50.570;10.428;2023-02-04T06:53:15;2.30;99.90
60033;DHT22;45905;50.570;10.428;2023-02-04T06:55:42;2.40;99.90
60033;DHT22;45905;50.570;10.428;2023-02-04T06:58:10;2.40;99.90
60033;DHT22;45905;50.570;10.428;2023-02-04T07:00:37;2.40;99.90
60033;DHT22;45905;50.570;10.428;2023-02-04T07:03:04;2.50;99.90
60033;DHT22;45905;50.570;10.428;2023-02-04T07:05:33;2.50;99.90
60033;DHT22;45905;50.570;10.428;2023-02-04T07:08:00;2.60;99.90
60033;DHT22;45905;50.570;10.428;2023-02-04T07:10:28;2.50;99.90
60033;DHT22;45905;50.570;10.428;2023-02-04T07:12:55;2.50;99.90
60033;DHT22;45905;50.570;10.428;2023-02-04T07:15:22;2.70;99.90
60033;DHT22;45905;50.570;10.428;2023-02-04T07:17:49;2.60;99.90
60033;DHT22;45905;50.570;10.428;2023-02-04T07:20:17;2.60;99.90
60033;DHT22;45905;50.570;10.428;2023-02-04T07:22:44;2.60;99.90
60033;DHT22;45905;50.570;10.428;2023-02-04T07:25:11;2.60;99.90
60033;DHT22;45905;50.570;10.428;2023-02-04T07:27:40;2.60;99.90
60033;DHT22;45905;50.570;10.428;2023-02-04T07:30:09;2.60;99.90
60033;DHT22;45905;50.570;10.428;2023-02-04T07:32:36;2.60;99.90
60033;DHT22;45905;50.570;10.428;2023-02-04T07:35:03;2.60;99.90
60033;DHT22;45905;50.570;10.428;2023-02-04T07:37:31;2.60;99.90
60033;DHT22;45905;50.570;10.428;2023-02-04T07:39:58;2.70;99.90
60033;DHT22;45905;50.570;10.428;2023-02-04T07:42:25;2.70;99.90
60033;DHT22;45905;50.570;10.428;2023-02-04T07:45:03;2.80;99.90
60033;DHT22;45905;50.570;10.428;2023-02-04T07:47:30;2.60;99.90
60033;DHT22;45905;50.570;10.428;2023-02-04T07:49:57;2.70;99.90
60033;DHT22;45905;50.570;10.428;2023-02-04T07:52:25;2.70;99.90
60033;DHT22;45905;50.570;10.428;2023-02-04T07:54:52;2.80;99.90
60033;DHT22;45905;50.570;10.428;2023-02-04T07:57:19;2.70;99.90
60033;DHT22;45905;50.570;10.428;2023-02-04T07:59:46;2.90;99.90
60033;DHT22;45905;50.570;10.428;2023-02-04T08:02:13;2.70;99.90
60033;DHT22;45905;50.570;10.428;2023-02-04T08:04:40;2.80;99.90
60033;DHT22;45905;50.570;10.428;2023-02-04T08:07:07;2.50;99.90
60033;DHT22;45905;50.570;10.428;2023-02-04T08:09:35;2.80;99.90
60033;DHT22;45905;50.570;10.428;2023-02-04T08:12:02;2.80;99.90
60033;DHT22;45905;50.570;10.428;2023-02-04T08:14:29;2.80;99.90
60033;DHT22;45905;50.570;10.428;2023-02-04T08:16:57;2.90;99.90
60033;DHT22;45905;50.570;10.428;2023-02-04T08:19:24;3.10;99.90
60033;DHT22;45905;50.570;10.428;2023-02-04T08:21:51;2.90;99.90
60033;DHT22;45905;50.570;10.428;2023-02-04T08:24:18;2.90;99.90
60033;DHT22;45905;50.570;10.428;2023-02-04T08:26:45;2.90;99.90
60033;DHT22;45905;50.570;10.428;2023-02-04T08:29:13;2.80;99.90
60033;DHT22;45905;50.570;10.428;2023-02-04T08:31:40;3.00;99.90
60033;DHT22;45905;50.570;10.428;2023-02-04T08:34:07;3.10;99.90
60033;DHT22;45905;50.570;10.428;2023-02-04T08:36:34;3.10;99.90
60033;DHT22;45905;50.570;10.428;2023-02-04T08:39:01;3.20;99.90
60033;DHT22;45905;50.570;10.428;2023-02-04T08:41:28;3.10;99.90
60033;DHT22;45905;50.570;10.428;2023-02-04T08:43:56;3.10;99.90
60033;DHT22;45905;50.570;10.428;2023-02-04T08:46:23;3.20;99.90
60033;DHT22;45905;50.570;10.428;2023-02-04T08:48:50;3.00;99.90
60033;DHT22;45905;50.570;10.428;2023-02-04T08:51:17;3.00;99.90
60033;DHT22;45905;50.570;10.428;2023-02-04T08:53:45;3.00;99.90
60033;DHT22;45905;50.570;10.428;2023-02-04T08:56:12;3.00;99.90
60033;DHT22;45905;50.570;10.428;2023-02-04T08:58:43;3.00;99.90
60033;DHT22;45905;50.570;10.428;2023-02-04T09:01:10;3.00;99.90
60033;DHT22;45905;50.570;10.428;2023-02-04T09:03:38;3.00;99.90
60033;DHT22;45905;50.570;10.428;2023-02-04T09:06:06;3.00;99.90
60033;DHT22;45905;50.570;10.428;2023-02-04T09:08:33;2.90;99.90
60033;DHT22;45905;50.570;10.428;2023-02-04T09:11:00;2.90;99.90
60033;DHT22;45905;50.570;10.428;2023-02-04T09:13:28;2.80;99.90
60033;DHT22;45905;50.570;10.428;2023-02-04T09:15:55;2.70;99.90
60033;DHT22;45905;50.570;10.428;2023-02-04T09:18:23;2.70;99.90
60033;DHT22;45905;50.570;10.428;2023-02-04T09:20:51;2.70;99.90
60033;DHT22;45905;50.570;10.428;2023-02-04T09:23:19;2.60;99.90
60033;DHT22;45905;50.570;10.428;2023-02-04T09:25:46;2.50;99.90
60033;DHT22;45905;50.570;10.428;2023-02-04T09:28:15;2.60;99.90
60033;DHT22;45905;50.570;10.428;2023-02-04T09:30:44;2.90;99.90
60033;DHT22;45905;50.570;10.428;2023-02-04T09:33:14;2.40;99.90
60033;DHT22;45905;50.570;10.428;2023-02-04T09:35:43;2.40;99.90
60033;DHT22;45905;50.570;10.428;2023-02-04T09:38:10;2.40;99.90
60033;DHT22;45905;50.570;10.428;2023-02-04T09:40:41;2.40;99.90
60033;DHT22;45905;50.570;10.428;2023-02-04T09:43:21;2.40;99.90
60033;DHT22;45905;50.570;10.428;2023-02-04T09:45:52;2.30;99.90
60033;DHT22;45905;50.570;10.428;2023-02-04T09:48:21;2.50;99.90
60033;DHT22;45905;50.570;10.428;2023-02-04T09:50:50;2.30;99.90
60033;DHT22;45905;50.570;10.428;2023-02-04T09:53:21;2.30;99.90
60033;DHT22;45905;50.570;10.428;2023-02-04T09:55:50;2.30;99.90
60033;DHT22;45905;50.570;10.428;2023-02-04T09:58:20;2.20;99.90
60033;DHT22;45905;50.570;10.428;2023-02-04T10:00:58;2.30;99.90
60033;DHT22;45905;50.570;10.428;2023-02-04T10:03:27;2.30;99.90
60033;DHT22;45905;50.570;10.428;2023-02-04T10:05:55;2.30;99.90
60033;DHT22;45905;50.570;10.428;2023-02-04T10:08:28;2.30;99.90
60033;DHT22;45905;50.570;10.428;2023-02-04T10:10:59;2.30;99.90
60033;DHT22;45905;50.570;10.428;2023-02-04T10:13:32;2.30;99.90
60033;DHT22;45905;50.570;10.428;2023-02-04T10:16:04;2.30;99.90
60033;DHT22;45905;50.570;10.428;2023-02-04T10:19:07;2.30;99.90
60033;DHT22;45905;50.570;10.428;2023-02-04T10:21:40;2.30;99.90
60033;DHT22;45905;50.570;10.428;2023-02-04T10:24:16;2.30;99.90
60033;DHT22;45905;50.570;10.428;2023-02-04T10:26:46;2.30;99.90
60033;DHT22;45905;50.570;10.428;2023-02-04T10:29:19;2.30;99.90
60033;DHT22;45905;50.570;10.428;2023-02-04T10:31:49;2.30;99.90
60033;DHT22;45905;50.570;10.428;2023-02-04T10:34:21;2.30;99.90
60033;DHT22;45905;50.570;10.428;2023-02-04T10:36:52;2.30;99.90
60033;DHT22;45905;50.570;10.428;2023-02-04T10:39:28;2.40;99.90
60033;DHT22;45905;50.570;10.428;2023-02-04T10:41:58;2.40;99.90
60033;DHT22;45905;50.570;10.428;2023-02-04T10:44:34;2.50;99.90
60033;DHT22;45905;50.570;10.428;2023-02-04T10:47:04;2.40;99.90
60033;DHT22;45905;50.570;10.428;2023-02-04T10:50:17;2.40;99.90
60033;DHT22;45905;50.570;10.428;2023-02-04T10:52:49;2.40;99.90
60033;DHT22;45905;50.570;10.428;2023-02-04T10:55:22;2.70;99.90
60033;DHT22;45905;50.570;10.428;2023-02-04T10:57:51;2.50;99.90
60033;DHT22;45905;50.570;10.428;2023-02-04T11:00:24;2.80;99.90
60033;DHT22;45905;50.570;10.428;2023-02-04T11:02:58;2.50;99.90
60033;DHT22;45905;50.570;10.428;2023-02-04T11:05:32;2.50;99.90
60033;DHT22;45905;50.570;10.428;2023-02-04T11:08:01;2.60;99.90
60033;DHT22;45905;50.570;10.428;2023-02-04T11:10:31;2.80;99.90
60033;DHT22;45905;50.570;10.428;2023-02-04T11:13:03;2.80;99.90
60033;DHT22;45905;50.570;10.428;2023-02-04T11:18:08;2.90;99.90
60033;DHT22;45905;50.570;10.428;2023-02-04T11:20:38;2.90;99.90
60033;DHT22;45905;50.570;10.428;2023-02-04T11:26:12;2.90;99.90
60033;DHT22;45905;50.570;10.428;2023-02-04T11:32:25;3.00;99.90
60033;DHT22;45905;50.570;10.428;2023-02-04T11:37:40;3.10;99.90
60033;DHT22;45905;50.570;10.428;2023-02-04T11:40:33;3.10;99.90
60033;DHT22;45905;50.570;10.428;2023-02-04T11:43:12;3.20;99.90
60033;DHT22;45905;50.570;10.428;2023-02-04T11:45:41;3.30;99.90
60033;DHT22;45905;50.570;10.428;2023-02-04T11:48:15;3.30;99.90
60033;DHT22;45905;50.570;10.428;2023-02-04T11:50:58;3.30;99.90
60033;DHT22;45905;50.570;10.428;2023-02-04T11:53:32;3.40;99.90
60033;DHT22;45905;50.570;10.428;2023-02-04T11:56:00;3.40;99.90
60033;DHT22;45905;50.570;10.428;2023-02-04T11:58:28;3.50;99.90
60033;DHT22;45905;50.570;10.428;2023-02-04T12:00:57;3.50;99.90
60033;DHT22;45905;50.570;10.428;2023-02-04T12:03:32;3.50;99.90
60033;DHT22;45905;50.570;10.428;2023-02-04T12:06:02;3.60;99.90
60033;DHT22;45905;50.570;10.428;2023-02-04T12:08:35;3.60;99.90
60033;DHT22;45905;50.570;10.428;2023-02-04T12:11:10;3.60;99.90
60033;DHT22;45905;50.570;10.428;2023-02-04T12:13:55;3.60;99.90
60033;DHT22;45905;50.570;10.428;2023-02-04T12:16:24;3.60;99.90
60033;DHT22;45905;50.570;10.428;2023-02-04T12:18:52;3.60;99.90
60033;DHT22;45905;50.570;10.428;2023-02-04T12:21:20;3.60;99.90
60033;DHT22;45905;50.570;10.428;2023-02-04T12:23:47;3.50;99.90
60033;DHT22;45905;50.570;10.428;2023-02-04T12:26:14;3.50;99.90
60033;DHT22;45905;50.570;10.428;2023-02-04T12:28:41;3.90;99.90
60033;DHT22;45905;50.570;10.428;2023-02-04T12:31:09;3.60;99.90
60033;DHT22;45905;50.570;10.428;2023-02-04T12:33:36;3.60;99.90
60033;DHT22;45905;50.570;10.428;2023-02-04T12:36:04;3.70;99.90
60033;DHT22;45905;50.570;10.428;2023-02-04T12:38:31;3.60;99.90
60033;DHT22;45905;50.570;10.428;2023-02-04T12:40:58;3.70;99.90
60033;DHT22;45905;50.570;10.428;2023-02-04T12:43:25;3.70;99.90
60033;DHT22;45905;50.570;10.428;2023-02-04T12:45:54;4.20;99.90
60033;DHT22;45905;50.570;10.428;2023-02-04T12:48:21;3.80;99.90
60033;DHT22;45905;50.570;10.428;2023-02-04T12:50:48;3.80;99.90
60033;DHT22;45905;50.570;10.428;2023-02-04T12:53:15;3.80;99.90
60033;DHT22;45905;50.570;10.428;2023-02-04T12:55:42;3.80;99.90
60033;DHT22;45905;50.570;10.428;2023-02-04T12:58:09;3.80;99.90
60033;DHT22;45905;50.570;10.428;2023-02-04T13:00:37;3.90;99.90
60033;DHT22;45905;50.570;10.428;2023-02-04T13:03:04;3.90;99.90
60033;DHT22;45905;50.570;10.428;2023-02-04T13:05:31;3.90;99.90
60033;DHT22;45905;50.570;10.428;2023-02-04T13:07:59;3.90;99.90
60033;DHT22;45905;50.570;10.428;2023-02-04T13:10:27;3.90;99.90
60033;DHT22;45905;50.570;10.428;2023-02-04T13:12:54;3.90;99.90
60033;DHT22;45905;50.570;10.428;2023-02-04T13:15:21;4.00;99.90
60033;DHT22;45905;50.570;10.428;2023-02-04T13:17:48;4.00;99.90
60033;DHT22;45905;50.570;10.428;2023-02-04T13:20:16;4.00;99.90
60033;DHT22;45905;50.570;10.428;2023-02-04T13:22:44;4.10;99.90
60033;DHT22;45905;50.570;10.428;2023-02-04T13:25:11;4.20;99.90
60033;DHT22;45905;50.570;10.428;2023-02-04T13:27:39;4.10;99.90
60033;DHT22;45905;50.570;10.428;2023-02-04T13:30:08;4.20;99.90
60033;DHT22;45905;50.570;10.428;2023-02-04T13:32:37;4.20;99.90
60033;DHT22;45905;50.570;10.428;2023-02-04T13:35:04;4.20;99.90
60033;DHT22;45905;50.570;10.428;2023-02-04T13:37:32;4.20;99.90
60033;DHT22;45905;50.570;10.428;2023-02-04T13:39:59;4.20;99.90
60033;DHT22;45905;50.570;10.428;2023-02-04T13:42:26;4.20;99.90
60033;DHT22;45905;50.570;10.428;2023-02-04T13:44:53;4.20;99.30
60033;DHT22;45905;50.570;10.428;2023-02-04T13:47:21;4.20;98.80
60033;DHT22;45905;50.570;10.428;2023-02-04T13:49:48;4.10;98.20
60033;DHT22;45905;50.570;10.428;2023-02-04T13:52:15;4.10;97.90
60033;DHT22;45905;50.570;10.428;2023-02-04T13:54:44;4.10;98.00
60033;DHT22;45905;50.570;10.428;2023-02-04T13:57:11;4.10;98.20
60033;DHT22;45905;50.570;10.428;2023-02-04T13:59:39;4.10;98.10
60033;DHT22;45905;50.570;10.428;2023-02-04T14:02:07;4.10;98.20
60033;DHT22;45905;50.570;10.428;2023-02-04T14:04:35;4.10;97.90
60033;DHT22;45905;50.570;10.428;2023-02-04T14:07:02;4.10;98.00
60033;DHT22;45905;50.570;10.428;2023-02-04T14:09:29;4.20;97.10
60033;DHT22;45905;50.570;10.428;2023-02-04T14:11:57;4.20;97.30
60033;DHT22;45905;50.570;10.428;2023-02-04T14:14:24;4.10;97.70
60033;DHT22;45905;50.570;10.428;2023-02-04T14:16:51;4.10;95.60
60033;DHT22;45905;50.570;10.428;2023-02-04T14:19:18;4.10;96.40
60033;DHT22;45905;50.570;10.428;2023-02-04T14:21:45;4.20;96.80
60033;DHT22;45905;50.570;10.428;2023-02-04T14:24:14;4.10;97.00
60033;DHT22;45905;50.570;10.428;2023-02-04T14:26:42;4.20;96.90
60033;DHT22;45905;50.570;10.428;2023-02-04T14:29:10;4.20;96.40
60033;DHT22;45905;50.570;10.428;2023-02-04T14:31:37;4.40;96.80
60033;DHT22;45905;50.570;10.428;2023-02-04T14:34:04;4.40;96.60
60033;DHT22;45905;50.570;10.428;2023-02-04T14:36:31;4.50;95.80
60033;DHT22;45905;50.570;10.428;2023-02-04T14:38:58;4.50;94.80
60033;DHT22;45905;50.570;10.428;2023-02-04T14:41:26;4.60;94.90
60033;DHT22;45905;50.570;10.428;2023-02-04T14:43:56;4.50;94.60
60033;DHT22;45905;50.570;10.428;2023-02-04T14:46:23;4.70;95.00
60033;DHT22;45905;50.570;10.428;2023-02-04T14:48:50;4.40;94.40
60033;DHT22;45905;50.570;10.428;2023-02-04T14:51:18;4.40;94.80
60033;DHT22;45905;50.570;10.428;2023-02-04T14:53:47;4.40;95.30
60033;DHT22;45905;50.570;10.428;2023-02-04T14:56:15;4.50;95.50
60033;DHT22;45905;50.570;10.428;2023-02-04T14:58:42;4.50;96.20
60033;DHT22;45905;50.570;10.428;2023-02-04T15:01:09;4.50;95.70
60033;DHT22;45905;50.570;10.428;2023-02-04T15:03:37;4.50;95.30
60033;DHT22;45905;50.570;10.428;2023-02-04T15:06:04;4.50;95.40
60033;DHT22;45905;50.570;10.428;2023-02-04T15:08:32;4.50;95.90
60033;DHT22;45905;50.570;10.428;2023-02-04T15:10:59;4.50;95.90
60033;DHT22;45905;50.570;10.428;2023-02-04T15:13:26;4.50;96.00
60033;DHT22;45905;50.570;10.428;2023-02-04T15:15:55;4.50;96.00
60033;DHT22;45905;50.570;10.428;2023-02-04T15:18:22;4.50;96.00
60033;DHT22;45905;50.570;10.428;2023-02-04T15:20:49;4.40;95.00
60033;DHT22;45905;50.570;10.428;2023-02-04T15:23:16;4.40;95.20
60033;DHT22;45905;50.570;10.428;2023-02-04T15:25:44;4.30;95.10
60033;DHT22;45905;50.570;10.428;2023-02-04T15:28:11;4.30;94.80
60033;DHT22;45905;50.570;10.428;2023-02-04T15:30:39;4.30;95.00
60033;DHT22;45905;50.570;10.428;2023-02-04T15:33:06;4.20;94.90
60033;DHT22;45905;50.570;10.428;2023-02-04T15:35:33;4.20;95.20
60033;DHT22;45905;50.570;10.428;2023-02-04T15:38:00;4.20;95.20
60033;DHT22;45905;50.570;10.428;2023-02-04T15:40:27;4.10;95.20
60033;DHT22;45905;50.570;10.428;2023-02-04T15:42:55;2.80;94.70
60033;DHT22;45905;50.570;10.428;2023-02-04T15:45:23;4.00;95.20
60033;DHT22;45905;50.570;10.428;2023-02-04T15:47:50;4.00;95.20
60033;DHT22;45905;50.570;10.428;2023-02-04T15:50:17;3.90;94.80
60033;DHT22;45905;50.570;10.428;2023-02-04T15:52:45;3.90;95.00